createdAt,value
2023-04-02T00:00:12.517Z,-3.64
2023-04-02T00:03:16.041Z,-3.74
2023-04-02T00:06:33.451Z,-3.79
2023-04-02T00:09:39.640Z,-3.69
2023-04-02T00:13:19.566Z,-3.76
2023-04-02T00:16:25.692Z,-3.72
2023-04-02T00:19:39.312Z,-3.63
2023-04-02T00:22:46.019Z,-3.57
2023-04-02T00:25:49.352Z,-3.64
2023-04-02T00:28:53.374Z,-3.71
2023-04-02T00:31:59.868Z,-3.78
2023-04-02T00:35:04.450Z,-3.81
2023-04-02T00:38:08.846Z,-3.81
2023-04-02T00:41:19.105Z,-3.78
2023-04-02T00:44:22.925Z,-3.61
2023-04-02T00:47:35.637Z,-3.56
2023-04-02T00:50:43.663Z,-3.42
2023-04-02T00:53:49.788Z,-3.59
2023-04-02T00:56:58.831Z,-3.52
2023-04-02T01:00:19.282Z,-3.46
2023-04-02T01:03:25.247Z,-3.42
2023-04-02T01:06:34.926Z,-3.37
2023-04-02T01:09:58.160Z,-3.34
2023-04-02T01:13:27.497Z,-3.18
2023-04-02T01:16:39.662Z,-3.33
2023-04-02T01:20:13.510Z,-3.16
2023-04-02T01:23:40.382Z,-3.18
2023-04-02T01:27:03.075Z,-3.13
2023-04-02T01:30:08.094Z,-3.31
2023-04-02T01:33:13.323Z,-3.31
2023-04-02T01:36:34.859Z,-3.27
2023-04-02T01:40:00.086Z,-3.42
2023-04-02T01:43:29.175Z,-3.50
2023-04-02T01:46:34.461Z,-3.44
2023-04-02T01:49:37.811Z,-3.27
2023-04-02T01:52:44.279Z,-3.25
2023-04-02T01:56:01.249Z,-3.32
2023-04-02T01:59:06.953Z,-3.31
2023-04-02T02:02:14.677Z,-3.41
2023-04-02T02:05:23.889Z,-3.37
2023-04-02T02:08:39.475Z,-3.22
2023-04-02T02:11:45.125Z,-3.21
2023-04-02T02:14:53.121Z,-3.38
2023-04-02T02:18:04.133Z,-3.46
2023-04-02T02:21:10.947Z,-3.46
2023-04-02T02:24:36.410Z,-3.39
2023-04-02T02:27:56.243Z,-3.25
2023-04-02T02:31:00.464Z,-3.38
2023-04-02T02:34:19.523Z,-3.51
2023-04-02T02:37:30.993Z,-3.52
2023-04-02T02:40:46.151Z,-3.68
2023-04-02T02:44:12.240Z,-3.64
2023-04-02T02:47:17.373Z,-3.47
2023-04-02T02:50:27.650Z,-3.58
2023-04-02T02:53:31.339Z,-3.66
2023-04-02T02:56:40.411Z,-3.66
2023-04-02T02:59:44.490Z,-3.53
2023-04-02T03:02:50.279Z,-3.43
2023-04-02T03:05:58.802Z,-3.40
2023-04-02T03:09:19.501Z,-3.38
2023-04-02T03:12:42.246Z,-3.45
2023-04-02T03:15:59.188Z,-3.38
2023-04-02T03:19:21.404Z,-3.32
2023-04-02T03:22:32.910Z,-3.19
2023-04-02T03:25:42.332Z,-3.16
2023-04-02T03:29:18.832Z,-3.22
2023-04-02T03:32:27.320Z,-3.43
2023-04-02T03:36:01.592Z,-3.57
2023-04-02T03:39:34.548Z,-3.49
2023-04-02T03:42:51.985Z,-3.31
2023-04-02T03:46:31.881Z,-3.23
2023-04-02T03:49:47.422Z,-3.16
2023-04-02T03:52:51.247Z,-3.12
2023-04-02T03:55:56.542Z,-3.22
2023-04-02T03:59:22.879Z,-3.38
2023-04-02T04:02:47.268Z,-3.53
2023-04-02T04:05:58.154Z,-3.50
2023-04-02T04:09:10.428Z,-3.29
2023-04-02T04:12:36.824Z,-3.02
2023-04-02T04:15:55.345Z,-3.07
2023-04-02T04:19:08.797Z,-3.08
2023-04-02T04:22:19.614Z,-3.19
2023-04-02T04:25:36.139Z,-3.28
2023-04-02T04:29:13.050Z,-3.29
2023-04-02T04:32:28.037Z,-3.12
2023-04-02T04:35:40.917Z,-3.18
2023-04-02T04:38:56.306Z,-3.18
2023-04-02T04:42:04.054Z,-3.26
2023-04-02T04:45:29.883Z,-3.31
2023-04-02T04:48:39.136Z,-3.49
2023-04-02T04:51:55.564Z,-3.52
2023-04-02T04:55:01.116Z,-3.44
2023-04-02T04:58:20.445Z,-3.42
2023-04-02T05:01:36.482Z,-3.50
2023-04-02T05:04:45.078Z,-3.55
2023-04-02T05:08:01.477Z,-3.56
2023-04-02T05:11:30.361Z,-3.53
2023-04-02T05:14:42.588Z,-3.57
2023-04-02T05:17:54.955Z,-3.52
2023-04-02T05:21:35.719Z,-3.46
2023-04-02T05:24:46.710Z,-3.52
2023-04-02T05:28:11.587Z,-3.33
2023-04-02T05:31:38.230Z,-3.45
2023-04-02T05:34:43.802Z,-3.49
2023-04-02T05:37:48.065Z,-3.48
2023-04-02T05:41:00.464Z,-3.42
2023-04-02T05:44:23.404Z,-3.30
2023-04-02T05:47:32.235Z,-3.21
2023-04-02T05:50:41.448Z,-3.21
2023-04-02T05:53:55.916Z,-3.23
2023-04-02T05:57:07.253Z,-3.29
2023-04-02T06:00:20.113Z,-3.23
2023-04-02T06:03:46.798Z,-3.17
2023-04-02T06:07:15.005Z,-3.06
2023-04-02T06:10:33.140Z,-2.96
2023-04-02T06:13:36.624Z,-2.76
2023-04-02T06:16:40.157Z,-2.61
2023-04-02T06:19:45.011Z,-2.72
2023-04-02T06:23:18.864Z,-2.71
2023-04-02T06:26:37.670Z,-2.77
2023-04-02T06:29:45.717Z,-3.11
2023-04-02T06:32:53.535Z,-3.04
2023-04-02T06:35:58.815Z,-3.11
2023-04-02T06:39:12.506Z,-3.06
2023-04-02T06:42:27.353Z,-3.09
2023-04-02T06:45:50.551Z,-3.06
2023-04-02T06:49:14.882Z,-3.08
2023-04-02T06:52:24.657Z,-2.97
2023-04-02T06:55:48.437Z,-2.89
2023-04-02T06:58:56.760Z,-2.93
2023-04-02T07:02:06.873Z,-2.99
2023-04-02T07:05:12.191Z,-3.15
2023-04-02T07:08:21.174Z,-3.23
2023-04-02T07:11:24.932Z,-3.19
2023-04-02T07:14:31.260Z,-3.05
2023-04-02T07:17:34.541Z,-2.93
2023-04-02T07:20:42.379Z,-2.82
2023-04-02T07:23:48.980Z,-2.87
2023-04-02T07:26:52.552Z,-2.80
2023-04-02T07:29:55.722Z,-2.81
2023-04-02T07:32:59.131Z,-2.84
2023-04-02T07:36:02.474Z,-2.80
2023-04-02T07:39:06.027Z,-2.72
2023-04-02T07:42:09.332Z,-2.76
2023-04-02T07:45:12.653Z,-2.82
2023-04-02T07:48:16.101Z,-2.90
2023-04-02T07:51:22.849Z,-2.91
2023-04-02T07:54:27.888Z,-3.04
2023-04-02T07:57:31.271Z,-3.10
2023-04-02T08:00:34.544Z,-3.12
2023-04-02T08:03:37.888Z,-3.12
2023-04-02T08:06:41.323Z,-3.07
2023-04-02T08:09:44.564Z,-2.99
2023-04-02T08:12:47.720Z,-2.86
2023-04-02T08:15:51.758Z,-2.86
2023-04-02T08:18:54.869Z,-2.77
2023-04-02T08:21:58.137Z,-2.70
2023-04-02T08:25:01.636Z,-2.55
2023-04-02T08:28:04.865Z,-2.39
2023-04-02T08:31:09.699Z,-2.57
2023-04-02T08:34:13.429Z,-2.66
2023-04-02T08:37:16.808Z,-2.77
2023-04-02T08:40:25.696Z,-2.95
2023-04-02T08:43:54.883Z,-2.93
2023-04-02T08:47:05.687Z,-2.80
2023-04-02T08:50:36.267Z,-2.77
2023-04-02T08:53:42.603Z,-2.93
2023-04-02T08:56:54.095Z,-2.84
2023-04-02T09:00:07.244Z,-2.93
2023-04-02T09:03:12.227Z,-3.02
2023-04-02T09:06:20.034Z,-3.10
2023-04-02T09:09:24.539Z,-3.18
2023-04-02T09:12:29.217Z,-3.12
2023-04-02T09:15:37.243Z,-3.30
2023-04-02T09:18:42.244Z,-3.42
2023-04-02T09:21:59.555Z,-3.39
2023-04-02T09:25:05.457Z,-3.37
2023-04-02T09:28:12.583Z,-3.43
2023-04-02T09:31:33.289Z,-3.57
2023-04-02T09:34:37.585Z,-3.66
2023-04-02T09:37:41.709Z,-3.69
2023-04-02T09:40:53.251Z,-3.70
2023-04-02T09:44:24.295Z,-3.70
2023-04-02T09:47:29.429Z,-3.68
2023-04-02T09:50:34.372Z,-3.84
2023-04-02T09:53:42.303Z,-3.88
2023-04-02T09:57:04.048Z,-3.84
2023-04-02T10:00:32.473Z,-3.95
2023-04-02T10:03:36.354Z,-3.95
2023-04-02T10:06:51.093Z,-3.96
2023-04-02T10:10:01.998Z,-4.01
2023-04-02T10:13:49.652Z,-4.15
2023-04-02T10:17:06.221Z,-4.17
2023-04-02T10:20:27.426Z,-4.30
2023-04-02T10:23:32.129Z,-4.30
2023-04-02T10:26:50.253Z,-4.25
2023-04-02T10:30:17.656Z,-4.37
2023-04-02T10:33:30.934Z,-4.45
2023-04-02T10:36:49.670Z,-4.58
2023-04-02T10:40:17.902Z,-4.62
2023-04-02T10:43:48.283Z,-4.60
2023-04-02T10:47:04.347Z,-4.63
2023-04-02T10:50:30.229Z,-4.62
2023-04-02T10:54:04.611Z,-4.56
2023-04-02T10:57:26.321Z,-4.55
2023-04-02T11:00:34.030Z,-4.55
2023-04-02T11:03:37.901Z,-4.53
2023-04-02T11:07:19.077Z,-4.51
2023-04-02T11:10:22.557Z,-4.49
2023-04-02T11:13:42.580Z,-4.53
2023-04-02T11:16:46.309Z,-4.56
2023-04-02T11:19:49.574Z,-4.58
2023-04-02T11:23:15.693Z,-4.55
2023-04-02T11:26:41.889Z,-4.54
2023-04-02T11:30:20.613Z,-4.54
2023-04-02T11:33:39.811Z,-4.59
2023-04-02T11:36:51.485Z,-4.68
2023-04-02T11:39:57.940Z,-4.72
2023-04-02T11:43:38.053Z,-4.82
2023-04-02T11:46:43.086Z,-4.93
2023-04-02T11:50:01.032Z,-4.96
2023-04-02T11:53:35.135Z,-5.07
2023-04-02T11:56:47.239Z,-5.11
2023-04-02T12:00:14.380Z,-5.15
2023-04-02T12:03:49.005Z,-5.24
2023-04-02T12:06:55.464Z,-5.21
2023-04-02T12:10:01.457Z,-5.15
2023-04-02T12:13:04.678Z,-5.18
2023-04-02T12:16:10.592Z,-5.24
2023-04-02T12:19:17.584Z,-5.27
2023-04-02T12:22:28.437Z,-5.33
2023-04-02T12:25:32.858Z,-5.29
2023-04-02T12:28:38.813Z,-5.23
2023-04-02T12:31:49.464Z,-5.22
2023-04-02T12:34:55.298Z,-5.24
2023-04-02T12:37:58.811Z,-5.22
2023-04-02T12:41:07.375Z,-5.17
2023-04-02T12:44:24.749Z,-5.23
2023-04-02T12:47:29.600Z,-5.26
2023-04-02T12:50:35.044Z,-5.27
2023-04-02T12:53:41.603Z,-5.30
2023-04-02T12:56:45.447Z,-5.31
2023-04-02T12:59:48.742Z,-5.31
2023-04-02T13:03:07.110Z,-5.30
2023-04-02T13:06:23.578Z,-5.34
2023-04-02T13:09:42.992Z,-5.40
2023-04-02T13:12:46.818Z,-5.45
2023-04-02T13:16:04.162Z,-5.41
2023-04-02T13:19:28.248Z,-5.40
2023-04-02T13:22:32.673Z,-5.44
2023-04-02T13:25:37.568Z,-5.41
2023-04-02T13:28:40.989Z,-5.38
2023-04-02T13:31:44.292Z,-5.34
2023-04-02T13:34:47.843Z,-5.28
2023-04-02T13:37:51.178Z,-5.25
2023-04-02T13:40:54.465Z,-5.19
2023-04-02T13:44:01.020Z,-5.15
2023-04-02T13:47:04.291Z,-5.16
2023-04-02T13:50:07.847Z,-5.15
2023-04-02T13:53:21.668Z,-5.17
2023-04-02T13:56:25.496Z,-5.16
2023-04-02T13:59:28.888Z,-5.26
2023-04-02T14:02:33.842Z,-5.24
2023-04-02T14:05:52.743Z,-5.24
2023-04-02T14:09:27.008Z,-5.17
2023-04-02T14:12:54.600Z,-5.13
2023-04-02T14:15:57.972Z,-5.16
2023-04-02T14:19:11.554Z,-5.16
2023-04-02T14:22:39.619Z,-5.16
2023-04-02T14:26:08.794Z,-5.24
2023-04-02T14:29:42.195Z,-5.19
2023-04-02T14:32:54.169Z,-5.18
2023-04-02T14:36:32.514Z,-5.19
2023-04-02T14:39:53.843Z,-5.20
2023-04-02T14:43:24.626Z,-5.20
2023-04-02T14:46:29.801Z,-5.25
2023-04-02T14:49:40.551Z,-5.25
2023-04-02T14:52:47.905Z,-5.26
2023-04-02T14:55:58.856Z,-5.27
2023-04-02T14:59:36.909Z,-5.28
2023-04-02T15:06:48.048Z,-5.24
2023-04-02T15:10:05.245Z,-5.24
2023-04-02T15:13:32.696Z,-5.18
2023-04-02T15:16:45.225Z,-5.12
2023-04-02T15:19:55.929Z,-5.09
2023-04-02T15:23:20.457Z,-5.11
